Rockland, ME

6:16 PM EDT on May 25, 2017 (GMT -0400)
Jameson Point | | Change Station
Active Advisory: Coastal Flood Advisory Active Notice: Coastal Flood Advisory

Elev 150 ft 44.12 °N, 69.09 °W | Updated 20 seconds ago

Overcast
Overcast
52.0 °F
Feels Like 52.0 °F
N
0.0
Wind Variable Wind from ENE
Gusts 8.0 mph

Today
High -- | Low -- °F
--% Chance of Precip.
Yesterday
High -- | Low -- °F
Precip. -- in
Pressure 29.89 in
Visibility 10.0 miles
Clouds Mostly Cloudy 4100 ft
Overcast 4700 ft
Dew Point 50 °F
Humidity 94%
Rainfall 0.00 in
Snow Depth Not available.
5:00 AM 8:06 PM
New Moon, 0% visible
METAR KRKD 252156Z AUTO 06014KT 10SM BKN041 OVC047 11/09 A2988 RMK AO2 SLP121 T01110094
Pressure 29.89 in
Visibility 10.0 miles
Clouds Mostly Cloudy 4100 ft
Overcast 4700 ft
Dew Point 50 °F
Humidity 94%
Rainfall 0.00 in
Snow Depth Not available.
5:00 AM 8:06 PM
New Moon, 0% visible
METAR KRKD 252156Z AUTO 06014KT 10SM BKN041 OVC047 11/09 A2988 RMK AO2 SLP121 T01110094

Get Your Daily Forecast Email!

Thanks for signing up!

Be on the lookout for a verification email in your inbox.

You'll start receiving severe weather alerts in your inbox..

×

10-Day Weather Forecast

Almanac

Astronomy

May. 25, 2017 Rise Set
Actual Time
Civil Twilight
Nautical Twilight
Astronomical Twilight
Moon
Length of Visible Light
Length of Day
Tomorrow will be .
, % of the Moon is Illuminated

Today's Extremes

State Highs State Lows

Community

WunderPhotos

Category 6

Welcome to Category 6. This is the collective home for Weather Underground's featured writeups by Dr. Jeff Masters (right), Bob Henson (left), Chris Burt, and other regular contributors.

Nearby

Air Quality

  Air Quality AQ Index Pollutant
Not available.

Snow Depth

Station Depth Elevation

Earthquake Activity

City Distance Mag. Time & Date
Minimum magnitude displayed is 2.5.

Coastal Water Temperatures

Place Temperature

Stations

Nearby Weather Stations

Station Location Temp. Windchill Dew Point Humidity Wind Precip. Elev Updated Type
                   

Watches & Warnings

Coastal Flood Advisory
Issued: 6:06 PM EDT May. 25, 2017 – National Weather Service

... Coastal flood advisory remains in effect from 10 PM this
evening to 1 am EDT Friday...

* location... midcoast and southwest coast of Maine and New
Hampshire.

* Timing... between 11 PM Thursday night and 1 am Friday morning.

* Impacts... splash-over and minor coastal flooding. Moderate
coastal flooding is possible in Hampton.

Precautionary/preparedness actions...

A coastal flood advisory indicates that onshore winds and tides
will combine to generate flooding of low areas along the shore.